Aérodrome :
LOGIN :

S'inscrire | Disclaimer

   EN    FR    IT 

 










Légende :    VFR   VFR Marginal   IFR   IFR Intensif   IFR Très Intensif
Visi : 
Plafond : 
>= 8 km
>= 3000ft
5 à 8 km
1000 à 3000 ft
1500m à 5 km
500 à 1000 ft
800 à 1500m
200 à 500 ft
< 800m
< 200 ft
Symboles :   Orages  Brouillard  Fortes neiges  Fortes précipitations  Vent > 20 kt
SIGMETs :   Divers  Orages  Givrage  Turbulence  Onde Orograph.  Cendres Volcan.







- Altitude de l'aérodrome : 15 ft
- Code IATA : BHD
- Voir les cartes d'approche


EGAC - George Best Belfast City

DERNIER METAR :
  • 201520Z 21010KT 9999 FEW016 SCT028 BKN048 15/13 Q1026

METARs EXPIRÉS :
  • 201450Z 22011KT 9999 FEW014 BKN045 15/13 Q1026
  • 201420Z AUTO 22009KT 9999 SCT014/// BKN023/// BKN032/// 15/13 Q1026
  • 201350Z AUTO 22012KT 9999 SCT014/// OVC028/// 15/12 Q1026
  • 201320Z AUTO 21010KT 180V250 9999 BKN015/// BKN028/// OVC037/// 15/12 Q1026
  • 201250Z AUTO 21011KT 9999 SCT015/// OVC032/// 15/12 Q1026

TAF TAF EGAC
Valide du 20 à 15h jusqu'au 20 à 21h UTC


201414Z 2015/2021 21009KT 9999 SCT012 BKN020
TEMPO 2015/2018 BKN012
PROB30
TEMPO 2015/2018 7000 -RADZ
BECMG 2018/2021 BKN008
TEMPO 2018/2021 5000 -RADZ
ATIS : +44 02890 935 124
Pas de NOTAMs connus pour ce terrain.
2 SIGMETs publiés pour la FIR Scottish (EGPX) :
 
Onde orographique forte
EGPX SIGMET 03 VALID 201500/201900 EGRR
EGPX SCOTTISH FIR SEV MTW FCST WI N5912 W00137 - N5652 W00031 - N5558 W00439 - N5817 W00635 - N5912 W00137 FL030/200 STNR NC=
Onde orographique forte
EGPX SIGMET 02 VALID 201100/201500 EGRR
EGPX SCOTTISH FIR SEV MTW FCST WI N5912 W00137 - N5652 W00031 - N5558 W00439 - N5817 W00635 - N5912 W00137 FL030/200 STNR NC=



MET'MAP, la Météo Aéronautique d'un coup d'oeil ! - Copyright ORBIFLY Décembre 2007 - Disclaimer

ORBIFLY MET'MAP TEAM :

Programmation & Développement : Alexandra Zaïnal
Conception & Développement : Baudouin d'Aumeries
Co-Programmation & Développement : Marc-Olivier Méhu
Soutien technique & logistique : Manuel Goepfert

Contact : metmap@orbifly.com




SOURCES & CREDITS :

   NOAA